Time;durP1;ratioP1;P1;durP2;ratioP2;P2;SDS_P1;SDS_P2;PMS_P1;PMS_P2;Temp;Humidity;BMP_temperature;BMP_pressure;BME280_temperature;BME280_humidity;BME280_pressure;Samples;Min_cycle;Max_cycle;Signal;HPM_P1;HPM_P2
2020/12/17 00:00:23;;;;;;;8.70;7.90;;;12.10;99.90;;;;;;5014545;28;20420;-71
2020/12/17 00:02:49;;;;;;;9.17;8.27;;;12.10;99.90;;;;;;5015422;28;20179;-71
2020/12/17 00:05:15;;;;;;;8.00;7.30;;;12.20;99.90;;;;;;5014722;28;20466;-71
2020/12/17 00:07:41;;;;;;;7.83;7.07;;;12.20;99.90;;;;;;5015661;28;20444;-71
2020/12/17 00:10:09;;;;;;;7.60;6.90;;;12.30;99.90;;;;;;5014639;28;20465;-72
2020/12/17 00:12:36;;;;;;;7.40;6.40;;;12.30;99.90;;;;;;5015816;28;20421;-71
2020/12/17 00:15:05;;;;;;;9.30;7.20;;;12.40;99.90;;;;;;5015543;28;20422;-71
2020/12/17 00:17:30;;;;;;;6.90;6.30;;;12.40;99.90;;;;;;5015034;28;20487;-71
2020/12/17 00:19:56;;;;;;;7.63;6.90;;;12.40;99.90;;;;;;5015285;28;20508;-71
2020/12/17 00:22:22;;;;;;;7.37;6.67;;;12.50;99.90;;;;;;5013533;28;20634;-71
2020/12/17 00:24:48;;;;;;;8.10;7.40;;;12.60;99.90;;;;;;5001921;28;20249;-71
2020/12/17 00:27:13;;;;;;;9.10;7.40;;;12.60;99.90;;;;;;5015492;28;20629;-72
2020/12/17 00:29:39;;;;;;;7.47;6.87;;;12.60;99.90;;;;;;5013733;28;20240;-71
2020/12/17 00:32:05;;;;;;;8.00;7.27;;;12.70;99.80;;;;;;5014626;28;20203;-71
2020/12/17 00:34:30;;;;;;;7.67;7.07;;;12.60;99.80;;;;;;5014613;28;20190;-71
2020/12/17 00:36:56;;;;;;;7.63;7.03;;;12.70;99.80;;;;;;5013870;28;20237;-71
2020/12/17 00:39:23;;;;;;;8.30;7.60;;;12.70;99.70;;;;;;5013070;28;20189;-71
2020/12/17 00:41:49;;;;;;;6.97;6.47;;;12.70;99.80;;;;;;5015258;28;20176;-71
2020/12/17 00:44:15;;;;;;;7.77;7.13;;;12.70;99.70;;;;;;5014322;28;20475;-71
2020/12/17 00:46:41;;;;;;;7.30;6.50;;;12.60;99.90;;;;;;5015022;28;20181;-71
2020/12/17 00:49:06;;;;;;;6.97;6.37;;;12.60;99.90;;;;;;5014735;28;20203;-71
2020/12/17 00:51:32;;;;;;;7.40;6.70;;;12.70;99.90;;;;;;5014017;28;20448;-71
2020/12/17 00:53:58;;;;;;;7.43;6.83;;;12.60;99.70;;;;;;5014351;28;20540;-71
2020/12/17 00:56:24;;;;;;;7.10;6.43;;;12.40;99.90;;;;;;5014076;28;20413;-71
2020/12/17 00:58:49;;;;;;;7.53;6.87;;;12.50;99.90;;;;;;5014465;28;20559;-71
2020/12/17 01:01:15;;;;;;;7.50;6.80;;;12.50;99.90;;;;;;5014002;28;20178;-71
2020/12/17 01:03:41;;;;;;;7.43;6.83;;;12.50;99.90;;;;;;5014680;28;20179;-71
2020/12/17 01:06:09;;;;;;;7.37;6.67;;;12.40;99.90;;;;;;5014150;28;20185;-71
2020/12/17 01:08:35;;;;;;;7.47;6.77;;;12.30;99.90;;;;;;5014601;28;20549;-71
2020/12/17 01:11:02;;;;;;;7.40;6.70;;;12.20;99.90;;;;;;5014642;28;20420;-71
2020/12/17 01:13:27;;;;;;;8.17;7.47;;;12.20;99.90;;;;;;5013558;28;20181;-71
2020/12/17 01:15:53;;;;;;;7.43;6.73;;;12.10;99.90;;;;;;5014235;28;20408;-71
2020/12/17 01:18:19;;;;;;;7.83;7.23;;;12.10;99.90;;;;;;5012246;28;20186;-71
2020/12/17 01:20:44;;;;;;;8.13;7.33;;;12.10;99.90;;;;;;5014341;28;20188;-71
2020/12/17 01:23:10;;;;;;;8.13;7.53;;;12.20;99.90;;;;;;5013734;28;20212;-72
2020/12/17 01:25:36;;;;;;;8.43;7.57;;;12.30;99.90;;;;;;5013811;28;20555;-71
2020/12/17 01:28:01;;;;;;;8.40;7.50;;;12.20;99.90;;;;;;5014151;28;20171;-71
2020/12/17 01:30:27;;;;;;;8.20;7.40;;;12.20;99.90;;;;;;5012987;28;20227;-71
2020/12/17 01:32:53;;;;;;;7.87;7.07;;;12.20;99.90;;;;;;5014256;28;20187;-71
2020/12/17 01:35:20;;;;;;;6.97;6.47;;;12.10;99.90;;;;;;5012864;28;20182;-71
2020/12/17 01:37:46;;;;;;;7.40;6.70;;;12.10;99.90;;;;;;5013353;28;20453;-71
2020/12/17 01:40:11;;;;;;;7.03;6.43;;;12.10;99.90;;;;;;5013317;28;20801;-72
2020/12/17 01:42:37;;;;;;;6.83;6.23;;;12.10;99.90;;;;;;5013529;28;20700;-71
2020/12/17 01:45:04;;;;;;;6.70;6.20;;;12.10;99.90;;;;;;5013636;28;20681;-71
2020/12/17 01:47:37;;;;;;;7.80;7.20;;;12.10;99.90;;;;;;5007452;28;20939;-71
2020/12/17 01:50:06;;;;;;;7.03;6.40;;;12.20;99.90;;;;;;5013154;28;20929;-71
2020/12/17 01:52:33;;;;;;;7.43;6.77;;;12.10;99.90;;;;;;5009955;28;20668;-71
2020/12/17 01:55:00;;;;;;;6.40;6.00;;;12.10;99.90;;;;;;5012247;28;20424;-71
2020/12/17 01:57:31;;;;;;;6.60;6.10;;;12.10;99.90;;;;;;5012136;28;20489;-71
2020/12/17 02:00:03;;;;;;;7.23;6.63;;;12.10;99.90;;;;;;5011711;28;20442;-71
2020/12/17 02:02:31;;;;;;;6.77;6.17;;;12.20;99.90;;;;;;5007102;28;20422;-71
2020/12/17 02:04:59;;;;;;;6.67;6.00;;;12.30;99.90;;;;;;5012580;28;20409;-71
2020/12/17 02:07:24;;;;;;;7.03;6.17;;;12.20;99.90;;;;;;5012092;28;20415;-71
2020/12/17 02:09:50;;;;;;;7.10;6.47;;;12.30;99.90;;;;;;5013039;28;20877;-71
2020/12/17 02:12:16;;;;;;;7.27;6.57;;;12.20;99.90;;;;;;5011788;28;20183;-72
2020/12/17 02:14:42;;;;;;;7.77;7.07;;;12.20;99.90;;;;;;5013079;28;20412;-71
2020/12/17 02:17:08;;;;;;;6.80;6.20;;;12.20;99.90;;;;;;5012564;28;20417;-71
2020/12/17 02:19:34;;;;;;;8.00;6.00;;;12.30;99.90;;;;;;5012162;28;20829;-71
2020/12/17 02:22:00;;;;;;;6.20;5.70;;;12.20;99.90;;;;;;5012632;28;20244;-71
2020/12/17 02:24:26;;;;;;;6.53;5.90;;;12.20;99.90;;;;;;5009201;28;20423;-71
2020/12/17 02:26:52;;;;;;;6.73;6.17;;;12.30;99.90;;;;;;5013169;28;20273;-71
2020/12/17 02:29:18;;;;;;;6.87;6.37;;;12.30;99.90;;;;;;5011894;28;20462;-71
2020/12/17 02:31:44;;;;;;;7.17;6.30;;;12.30;99.90;;;;;;5013343;28;20463;-71
2020/12/17 02:34:10;;;;;;;6.93;6.40;;;12.40;99.90;;;;;;5012673;28;20405;-70
2020/12/17 02:36:36;;;;;;;6.33;5.40;;;12.40;99.90;;;;;;5012158;28;20540;-71
2020/12/17 02:39:04;;;;;;;6.40;5.80;;;12.40;99.90;;;;;;5012552;28;20500;-71
2020/12/17 02:41:29;;;;;;;6.20;5.77;;;12.50;99.90;;;;;;5011935;28;20940;-71
2020/12/17 02:43:55;;;;;;;6.10;5.60;;;12.40;99.90;;;;;;5012505;28;20420;-71
2020/12/17 02:46:21;;;;;;;7.00;6.40;;;12.40;99.90;;;;;;5012054;28;20177;-71
2020/12/17 02:48:51;;;;;;;6.10;5.60;;;12.40;99.90;;;;;;5012653;28;20264;-71
2020/12/17 02:51:17;;;;;;;6.53;5.93;;;12.50;99.90;;;;;;5012148;28;20270;-72
2020/12/17 02:53:42;;;;;;;6.20;5.60;;;12.50;99.90;;;;;;5012661;28;20559;-71
2020/12/17 02:56:12;;;;;;;5.60;5.20;;;12.30;99.90;;;;;;5012692;28;20510;-71
2020/12/17 02:58:37;;;;;;;6.23;5.63;;;12.40;99.90;;;;;;5011954;28;20316;-71
2020/12/17 03:01:03;;;;;;;6.27;5.67;;;12.40;99.90;;;;;;5012458;28;21016;-71
2020/12/17 03:03:29;;;;;;;6.07;5.60;;;12.40;99.90;;;;;;5011877;28;20191;-71
2020/12/17 03:05:54;;;;;;;6.50;5.80;;;12.50;99.90;;;;;;5012463;28;20179;-71
2020/12/17 03:08:20;;;;;;;6.10;5.50;;;12.50;99.90;;;;;;5011487;28;20203;-71
2020/12/17 03:10:46;;;;;;;6.20;5.80;;;12.40;99.90;;;;;;5012560;28;20675;-71
2020/12/17 03:13:12;;;;;;;6.17;5.77;;;12.30;99.90;;;;;;5012612;28;20257;-71
2020/12/17 03:15:38;;;;;;;6.73;6.17;;;12.40;99.90;;;;;;5011439;28;20188;-71
2020/12/17 03:18:03;;;;;;;5.60;5.13;;;12.50;99.90;;;;;;5012219;28;20414;-71
2020/12/17 03:20:29;;;;;;;6.43;5.90;;;12.50;99.90;;;;;;5011625;28;20494;-71
2020/12/17 03:22:55;;;;;;;6.30;5.80;;;12.30;99.90;;;;;;5012379;28;20185;-71
2020/12/17 03:25:20;;;;;;;6.03;5.63;;;12.50;99.90;;;;;;5011460;28;20241;-71
2020/12/17 03:27:46;;;;;;;5.60;5.13;;;12.50;99.90;;;;;;5012443;28;20266;-71
2020/12/17 03:30:12;;;;;;;6.40;5.90;;;12.50;99.90;;;;;;5011855;28;20243;-71
2020/12/17 03:32:37;;;;;;;5.70;5.30;;;12.40;99.90;;;;;;5011164;28;20272;-71
2020/12/17 03:35:03;;;;;;;5.90;5.40;;;12.40;99.90;;;;;;5012254;28;20212;-71
2020/12/17 03:37:29;;;;;;;6.40;5.80;;;12.50;99.90;;;;;;5010375;28;20185;-71
2020/12/17 03:39:55;;;;;;;5.87;5.47;;;12.70;99.90;;;;;;5011024;28;20476;-71
2020/12/17 03:42:21;;;;;;;6.30;5.80;;;12.70;99.70;;;;;;5011616;28;20262;-72
2020/12/17 03:44:46;;;;;;;6.40;5.90;;;12.70;99.50;;;;;;5011029;28;20202;-71
2020/12/17 03:47:12;;;;;;;6.00;5.60;;;12.70;99.50;;;;;;5012464;28;20402;-71
2020/12/17 03:49:38;;;;;;;6.40;5.50;;;12.60;99.70;;;;;;5011107;28;20215;-71
2020/12/17 03:52:03;;;;;;;6.30;5.80;;;12.60;99.70;;;;;;5011805;28;20183;-71
2020/12/17 03:54:29;;;;;;;6.43;5.83;;;12.50;99.80;;;;;;5011413;28;20180;-71
2020/12/17 03:56:55;;;;;;;6.43;5.93;;;12.60;99.70;;;;;;5012137;28;20179;-71
2020/12/17 03:59:20;;;;;;;6.43;5.90;;;12.60;99.70;;;;;;5011550;28;20684;-71
2020/12/17 04:01:46;;;;;;;7.97;6.00;;;12.70;99.50;;;;;;5012023;28;20187;-71
2020/12/17 04:04:12;;;;;;;6.47;5.97;;;12.70;99.30;;;;;;5010941;28;20666;-71
2020/12/17 04:06:38;;;;;;;6.60;5.90;;;12.60;99.40;;;;;;5009523;28;20208;-68
2020/12/17 04:09:03;;;;;;;6.20;5.70;;;12.40;99.80;;;;;;5010725;28;20245;-68
2020/12/17 04:11:29;;;;;;;6.27;5.73;;;12.50;99.80;;;;;;5011228;28;20187;-68
2020/12/17 04:13:55;;;;;;;6.90;6.30;;;12.40;99.80;;;;;;5011909;28;20650;-68
2020/12/17 04:16:20;;;;;;;6.60;5.90;;;12.40;99.80;;;;;;5011290;28;20242;-69
2020/12/17 04:18:46;;;;;;;6.57;5.97;;;12.40;99.80;;;;;;5011492;28;20186;-68
2020/12/17 04:21:12;;;;;;;6.37;5.87;;;12.40;99.80;;;;;;5011965;28;20183;-68
2020/12/17 04:23:38;;;;;;;6.23;5.83;;;12.30;99.90;;;;;;5011240;28;20179;-68
2020/12/17 04:26:03;;;;;;;7.30;6.80;;;12.40;99.90;;;;;;5011967;28;20208;-68
2020/12/17 04:28:29;;;;;;;9.90;6.30;;;12.50;99.80;;;;;;5011328;28;20210;-68
2020/12/17 04:30:55;;;;;;;6.73;6.13;;;12.40;99.70;;;;;;5015029;28;20752;-68
2020/12/17 04:33:21;;;;;;;6.67;6.20;;;12.50;99.60;;;;;;5015034;28;20186;-69
2020/12/17 04:35:47;;;;;;;7.87;7.17;;;12.50;99.70;;;;;;5014748;28;20416;-72
2020/12/17 04:38:13;;;;;;;7.00;6.50;;;12.40;99.80;;;;;;5014952;28;20487;-68
2020/12/17 04:40:38;;;;;;;6.80;6.20;;;12.30;99.70;;;;;;5014972;28;20180;-68
2020/12/17 04:43:04;;;;;;;6.07;5.57;;;12.20;99.80;;;;;;5015599;28;20172;-68
2020/12/17 04:45:31;;;;;;;6.30;5.90;;;12.30;99.90;;;;;;5014894;28;20178;-68
2020/12/17 04:47:57;;;;;;;7.40;6.70;;;12.30;99.90;;;;;;5015014;28;20972;-68
2020/12/17 04:50:25;;;;;;;7.30;6.60;;;12.30;99.90;;;;;;5014787;28;20547;-68
2020/12/17 04:52:53;;;;;;;6.90;6.40;;;12.30;99.80;;;;;;5015432;28;20409;-68
2020/12/17 04:55:23;;;;;;;7.50;6.90;;;12.20;99.90;;;;;;5015214;28;20414;-68
2020/12/17 04:57:51;;;;;;;7.20;6.57;;;12.10;99.90;;;;;;5015320;28;20417;-68
2020/12/17 05:00:17;;;;;;;6.97;6.47;;;12.10;99.90;;;;;;5015243;28;20894;-68
2020/12/17 05:02:46;;;;;;;6.23;5.83;;;12.20;99.90;;;;;;5014519;28;20421;-68
2020/12/17 05:05:12;;;;;;;6.43;5.90;;;12.30;99.90;;;;;;5014860;28;20433;-68
2020/12/17 05:07:39;;;;;;;7.03;6.43;;;12.10;99.90;;;;;;5014422;28;20423;-68
2020/12/17 05:10:05;;;;;;;7.30;6.80;;;12.10;99.90;;;;;;5014916;28;20456;-68
2020/12/17 05:12:31;;;;;;;7.33;6.73;;;12.10;99.90;;;;;;5014415;28;20422;-68
2020/12/17 05:14:57;;;;;;;7.00;6.37;;;12.10;99.90;;;;;;5013443;28;20464;-68
2020/12/17 05:17:23;;;;;;;8.63;6.77;;;12.10;99.90;;;;;;5014674;28;20179;-68
2020/12/17 05:19:49;;;;;;;7.47;6.93;;;12.10;99.90;;;;;;5014501;28;20919;-68
2020/12/17 05:22:16;;;;;;;7.60;7.00;;;12.20;99.90;;;;;;5014454;28;20414;-68
2020/12/17 05:24:43;;;;;;;7.20;6.60;;;12.20;99.90;;;;;;5014147;28;20417;-68
2020/12/17 05:27:10;;;;;;;7.77;7.07;;;12.30;99.90;;;;;;5014655;28;20432;-68
2020/12/17 05:29:38;;;;;;;8.17;7.43;;;12.20;99.90;;;;;;5014026;28;20467;-68
2020/12/17 05:32:04;;;;;;;9.43;8.57;;;12.10;99.90;;;;;;5014605;28;20422;-68
2020/12/17 05:34:30;;;;;;;8.13;7.30;;;12.10;99.90;;;;;;5013756;28;20418;-69
2020/12/17 05:36:56;;;;;;;8.00;7.30;;;12.10;99.90;;;;;;5014530;28;20425;-68
2020/12/17 05:39:24;;;;;;;8.43;7.63;;;12.20;99.90;;;;;;5014096;28;20182;-68
2020/12/17 05:41:52;;;;;;;8.57;7.83;;;12.20;99.90;;;;;;5014385;28;20413;-68
2020/12/17 05:44:38;;;;;;;7.27;6.67;;;12.20;99.90;;;;;;5014340;28;20830;-68
2020/12/17 05:47:04;;;;;;;8.17;7.47;;;12.10;99.90;;;;;;5014265;28;20475;-68
2020/12/17 05:49:32;;;;;;;7.80;7.20;;;12.10;99.90;;;;;;5013643;28;20936;-68
2020/12/17 05:52:20;;;;;;;8.07;7.30;;;12.20;99.90;;;;;;5014053;28;20176;-68
2020/12/17 05:54:52;;;;;;;7.10;6.60;;;12.20;99.90;;;;;;5013574;28;20453;-68
2020/12/17 05:57:18;;;;;;;8.77;7.87;;;12.20;99.90;;;;;;5014158;28;20408;-68
2020/12/17 05:59:58;;;;;;;8.23;7.53;;;12.20;99.90;;;;;;5013039;28;20749;-69
2020/12/17 06:02:26;;;;;;;8.13;7.13;;;12.10;99.90;;;;;;5014200;28;20424;-68
2020/12/17 06:05:14;;;;;;;7.30;6.70;;;12.20;99.90;;;;;;5013791;28;20508;-68
2020/12/17 06:07:47;;;;;;;7.73;7.13;;;12.30;99.90;;;;;;5013645;28;20438;-68
2020/12/17 06:10:22;;;;;;;10.10;7.73;;;12.40;99.90;;;;;;5012816;28;20449;-68
2020/12/17 06:12:51;;;;;;;9.50;8.60;;;12.30;99.90;;;;;;5013285;28;20424;-68
2020/12/17 06:15:19;;;;;;;9.60;8.47;;;12.10;99.90;;;;;;5013745;28;20465;-68
2020/12/17 06:17:52;;;;;;;8.87;8.07;;;12.00;99.90;;;;;;5013133;28;20419;-68
2020/12/17 06:20:19;;;;;;;8.00;7.30;;;12.10;99.90;;;;;;5013785;28;20405;-68
2020/12/17 06:22:51;;;;;;;8.20;7.40;;;12.20;99.90;;;;;;5011608;28;20417;-67
2020/12/17 06:25:18;;;;;;;8.40;7.70;;;12.10;99.90;;;;;;5013673;28;20938;-67
2020/12/17 06:27:46;;;;;;;8.70;7.90;;;12.10;99.90;;;;;;5012930;28;20407;-67
2020/12/17 06:30:15;;;;;;;8.53;7.73;;;12.00;99.90;;;;;;5013016;28;20971;-67
2020/12/17 06:32:41;;;;;;;8.93;8.00;;;12.10;99.90;;;;;;5012823;28;20421;-67
2020/12/17 06:35:16;;;;;;;7.93;7.33;;;12.00;99.90;;;;;;5013290;28;20430;-67
2020/12/17 06:37:41;;;;;;;9.27;8.30;;;12.10;99.90;;;;;;5012891;28;20557;-67
2020/12/17 06:40:07;;;;;;;8.17;7.47;;;12.00;99.90;;;;;;5013444;28;20406;-67
2020/12/17 06:42:37;;;;;;;7.90;7.10;;;12.00;99.90;;;;;;5012802;28;20611;-68
2020/12/17 06:45:26;;;;;;;9.93;9.13;;;12.10;99.90;;;;;;5013282;28;20571;-67
2020/12/17 06:47:53;;;;;;;8.70;7.77;;;12.10;99.90;;;;;;5013353;28;20426;-67
2020/12/17 06:50:28;;;;;;;8.63;7.83;;;12.10;99.90;;;;;;5013178;28;20452;-67
2020/12/17 06:53:09;;;;;;;12.57;10.97;;;12.10;99.90;;;;;;5013011;28;20427;-67
2020/12/17 06:55:57;;;;;;;9.40;8.50;;;12.30;99.90;;;;;;5012486;28;20410;-68
2020/12/17 06:58:24;;;;;;;8.63;7.87;;;12.20;99.90;;;;;;5013155;28;20728;-67
2020/12/17 07:00:54;;;;;;;8.20;7.50;;;12.30;99.90;;;;;;5011979;28;20412;-67
2020/12/17 07:03:42;;;;;;;7.87;7.17;;;12.20;99.90;;;;;;5011950;28;20457;-67
2020/12/17 07:06:35;;;;;;;8.17;7.30;;;12.20;99.90;;;;;;5012807;28;20419;-67
2020/12/17 07:09:00;;;;;;;7.83;7.23;;;12.30;99.90;;;;;;5010850;28;20473;-67
2020/12/17 07:11:35;;;;;;;8.57;7.77;;;12.40;99.90;;;;;;5012967;28;20420;-67
2020/12/17 07:14:02;;;;;;;8.13;7.43;;;12.30;99.90;;;;;;5012656;28;20201;-67
2020/12/17 07:16:31;;;;;;;9.50;8.70;;;12.40;99.90;;;;;;5012846;28;20511;-67
2020/12/17 07:19:26;;;;;;;9.20;8.50;;;12.40;99.90;;;;;;5012642;28;20403;-67
2020/12/17 07:22:18;;;;;;;9.37;8.57;;;12.50;99.90;;;;;;5012089;28;20563;-67
2020/12/17 07:24:48;;;;;;;8.10;7.40;;;12.40;99.90;;;;;;5012242;28;20419;-67
2020/12/17 07:27:15;;;;;;;8.63;7.83;;;12.50;99.90;;;;;;5012783;28;20415;-67
2020/12/17 07:29:43;;;;;;;8.30;7.60;;;12.60;99.90;;;;;;5011728;28;20933;-67
2020/12/17 07:32:30;;;;;;;8.33;7.63;;;12.50;99.90;;;;;;5011684;28;20428;-67
2020/12/17 07:35:07;;;;;;;8.80;7.03;;;12.50;99.90;;;;;;5012552;28;20517;-67
2020/12/17 07:37:44;;;;;;;7.60;6.90;;;12.50;99.90;;;;;;5012035;28;20417;-68
2020/12/17 07:40:35;;;;;;;8.17;7.57;;;12.50;99.90;;;;;;5012687;28;20901;-67
2020/12/17 07:43:15;;;;;;;8.00;7.27;;;12.40;99.90;;;;;;5012578;28;20456;-67
2020/12/17 07:45:48;;;;;;;7.00;6.50;;;12.30;99.90;;;;;;5012158;28;20386;-68
2020/12/17 07:48:44;;;;;;;7.00;6.50;;;12.40;99.90;;;;;;5012467;28;20422;-67
2020/12/17 07:51:13;;;;;;;6.73;6.13;;;12.30;99.90;;;;;;5012645;28;20504;-67
2020/12/17 07:53:41;;;;;;;7.10;6.40;;;12.30;99.90;;;;;;5012163;28;20426;-67
2020/12/17 07:56:07;;;;;;;6.87;6.33;;;12.10;99.90;;;;;;5012530;28;20418;-67
2020/12/17 07:58:34;;;;;;;7.30;6.80;;;12.00;99.90;;;;;;5011856;28;20956;-68
2020/12/17 08:01:00;;;;;;;6.40;5.90;;;12.10;99.90;;;;;;5012582;28;20406;-67
2020/12/17 08:03:27;;;;;;;7.70;7.07;;;12.10;99.90;;;;;;5012773;28;20436;-67
2020/12/17 08:06:04;;;;;;;7.00;6.50;;;12.10;99.90;;;;;;5014295;28;20420;-67
2020/12/17 08:08:30;;;;;;;8.40;7.60;;;12.20;99.90;;;;;;5016152;28;20778;-67
2020/12/17 08:10:55;;;;;;;8.03;7.23;;;12.20;99.90;;;;;;5015530;28;20456;-67
2020/12/17 08:13:21;;;;;;;7.80;7.10;;;12.20;99.90;;;;;;5016073;28;20675;-67
2020/12/17 08:15:54;;;;;;;7.40;6.80;;;12.30;99.90;;;;;;5015437;28;20255;-67
2020/12/17 08:18:25;;;;;;;7.37;6.83;;;12.30;99.90;;;;;;5016115;28;20435;-67
2020/12/17 08:21:05;;;;;;;9.00;6.30;;;12.40;99.90;;;;;;5015275;28;20407;-67
2020/12/17 08:23:33;;;;;;;6.90;6.40;;;12.40;99.90;;;;;;5016178;28;20462;-66
2020/12/17 08:26:01;;;;;;;6.60;6.07;;;12.30;99.90;;;;;;5016075;28;20766;-67
2020/12/17 08:28:36;;;;;;;7.13;6.43;;;12.30;99.90;;;;;;5015333;28;20453;-67
2020/12/17 08:31:05;;;;;;;6.70;6.20;;;12.20;99.90;;;;;;5015248;28;20455;-67
2020/12/17 08:33:34;;;;;;;6.77;6.27;;;12.20;99.90;;;;;;5015168;28;20968;-67
2020/12/17 08:36:04;;;;;;;6.40;5.90;;;12.20;99.90;;;;;;5011496;28;20402;-67
2020/12/17 08:38:30;;;;;;;9.60;8.17;;;12.20;99.90;;;;;;5014151;28;20464;-67
2020/12/17 08:40:59;;;;;;;7.10;6.60;;;12.20;99.90;;;;;;5013573;28;20394;-68
2020/12/17 08:43:31;;;;;;;7.47;6.90;;;12.30;99.90;;;;;;5014611;28;20830;-67
2020/12/17 08:45:58;;;;;;;7.60;7.00;;;12.30;99.90;;;;;;5014757;28;20464;-67
2020/12/17 08:48:25;;;;;;;7.00;6.53;;;12.30;99.90;;;;;;5014927;28;20788;-67
2020/12/17 08:50:52;;;;;;;6.60;6.00;;;12.20;99.90;;;;;;5014742;28;20403;-67
2020/12/17 08:53:30;;;;;;;6.53;5.97;;;12.30;99.90;;;;;;5014946;28;20516;-67
2020/12/17 08:56:02;;;;;;;7.57;6.97;;;12.40;99.90;;;;;;5014072;28;20921;-67
2020/12/17 08:58:28;;;;;;;6.70;6.30;;;12.40;99.90;;;;;;5015024;28;20471;-67
2020/12/17 09:00:54;;;;;;;7.40;6.80;;;12.40;99.90;;;;;;5014490;28;20414;-67
2020/12/17 09:03:22;;;;;;;7.67;7.07;;;12.40;99.90;;;;;;5014937;28;20175;-68
2020/12/17 09:06:03;;;;;;;7.23;6.73;;;12.40;99.90;;;;;;5013358;28;20245;-68
2020/12/17 09:08:29;;;;;;;6.50;5.90;;;12.40;99.90;;;;;;5012386;28;20475;-68
2020/12/17 09:10:54;;;;;;;6.13;5.70;;;12.40;99.90;;;;;;5013092;28;20525;-68
2020/12/17 09:13:22;;;;;;;6.17;5.77;;;12.40;99.90;;;;;;5013453;28;20182;-68
2020/12/17 09:16:08;;;;;;;6.13;5.60;;;12.30;99.90;;;;;;5012171;28;20748;-69
2020/12/17 09:18:34;;;;;;;6.30;5.90;;;12.40;99.90;;;;;;5011970;28;20437;-69
2020/12/17 09:21:10;;;;;;;6.30;5.90;;;12.50;99.90;;;;;;5014524;28;20407;-68
2020/12/17 09:23:40;;;;;;;6.73;6.07;;;12.50;99.90;;;;;;5012854;28;20240;-68
2020/12/17 09:26:13;;;;;;;5.83;5.43;;;12.60;99.90;;;;;;5012972;28;20455;-68
2020/12/17 09:28:55;;;;;;;6.10;5.70;;;12.60;99.90;;;;;;5012457;28;20585;-68
2020/12/17 09:31:25;;;;;;;6.00;5.50;;;12.50;99.90;;;;;;5010708;28;20556;-68
2020/12/17 09:34:04;;;;;;;5.83;5.43;;;12.50;99.90;;;;;;5012626;28;20481;-68
2020/12/17 09:36:29;;;;;;;5.70;5.40;;;12.40;99.90;;;;;;5012878;28;20426;-68
2020/12/17 09:39:11;;;;;;;6.10;5.70;;;12.40;99.90;;;;;;5013014;28;20480;-68
2020/12/17 09:41:37;;;;;;;5.60;5.20;;;12.40;99.90;;;;;;5012400;28;20433;-68
2020/12/17 09:44:03;;;;;;;6.30;5.80;;;12.40;99.90;;;;;;5010776;28;20460;-67
2020/12/17 09:46:49;;;;;;;5.60;5.20;;;12.50;99.90;;;;;;5008751;28;20424;-67
2020/12/17 09:49:35;;;;;;;5.40;5.10;;;12.60;99.90;;;;;;5004546;28;20467;-68
2020/12/17 09:52:09;;;;;;;6.07;5.57;;;13.00;99.90;;;;;;5008793;28;20898;-68
2020/12/17 09:54:43;;;;;;;5.47;5.07;;;13.60;99.70;;;;;;5010549;28;20499;-69
2020/12/17 09:57:13;;;;;;;5.97;5.50;;;14.70;97.50;;;;;;5010106;28;20768;-68
2020/12/17 09:59:41;;;;;;;5.97;5.47;;;15.80;95.20;;;;;;5011037;28;20488;-70
2020/12/17 10:02:12;;;;;;;6.40;5.90;;;17.00;92.90;;;;;;5019412;28;20449;-67
2020/12/17 10:04:39;;;;;;;6.30;5.90;;;18.40;90.50;;;;;;5026059;28;20521;-69
2020/12/17 10:07:06;;;;;;;6.70;6.30;;;19.30;85.30;;;;;;5013315;28;20421;-67
2020/12/17 10:09:32;;;;;;;7.37;6.87;;;19.40;83.30;;;;;;5010985;28;20846;-67
2020/12/17 10:11:58;;;;;;;6.80;6.40;;;18.90;82.10;;;;;;5008981;28;20421;-67
2020/12/17 10:14:26;;;;;;;7.30;6.90;;;18.40;84.00;;;;;;5013075;28;20171;-67
2020/12/17 10:16:57;;;;;;;7.00;6.60;;;17.80;85.50;;;;;;5013100;28;20531;-67
2020/12/17 10:19:23;;;;;;;6.47;5.93;;;17.20;87.30;;;;;;5012177;28;20777;-67
2020/12/17 10:21:50;;;;;;;6.10;5.60;;;16.60;89.50;;;;;;5011578;28;20422;-67
2020/12/17 10:24:15;;;;;;;6.50;6.00;;;16.10;90.70;;;;;;5012219;28;20419;-67
2020/12/17 10:26:41;;;;;;;5.87;5.50;;;15.70;91.90;;;;;;5009667;28;20417;-67
2020/12/17 10:29:08;;;;;;;5.13;4.83;;;15.90;92.50;;;;;;5012017;28;20457;-67
2020/12/17 10:31:33;;;;;;;4.53;4.23;;;16.60;91.40;;;;;;5011247;28;20862;-68
2020/12/17 10:34:00;;;;;;;5.87;5.37;;;16.80;90.50;;;;;;5012142;28;20447;-67
2020/12/17 10:36:25;;;;;;;4.93;4.63;;;16.80;90.20;;;;;;5011764;28;20183;-67
2020/12/17 10:38:51;;;;;;;4.77;4.47;;;16.60;90.00;;;;;;5011361;28;20492;-67
2020/12/17 10:41:24;;;;;;;4.80;4.60;;;16.30;90.30;;;;;;5013294;28;20186;-67
2020/12/17 10:43:50;;;;;;;5.80;5.27;;;16.10;90.60;;;;;;5012714;28;20829;-67
2020/12/17 10:46:16;;;;;;;4.47;4.17;;;15.80;91.00;;;;;;5013196;28;20415;-67
2020/12/17 10:48:41;;;;;;;3.93;3.70;;;15.50;91.50;;;;;;5012464;28;20471;-67
2020/12/17 10:51:07;;;;;;;5.40;5.10;;;15.20;92.00;;;;;;5013127;28;20176;-67
2020/12/17 10:53:33;;;;;;;4.60;4.20;;;14.80;92.60;;;;;;5013164;28;20217;-67
2020/12/17 10:55:59;;;;;;;4.50;4.27;;;14.70;93.20;;;;;;5012502;28;20194;-67
2020/12/17 10:58:24;;;;;;;4.17;3.97;;;14.40;93.70;;;;;;5012948;28;20432;-67
2020/12/17 11:00:50;;;;;;;3.73;3.50;;;14.30;94.10;;;;;;5012549;28;20181;-67
2020/12/17 11:03:16;;;;;;;4.00;3.80;;;14.00;94.20;;;;;;5012993;28;20223;-67
2020/12/17 11:05:41;;;;;;;4.43;4.20;;;13.80;94.70;;;;;;5012213;28;20187;-67
2020/12/17 11:08:07;;;;;;;3.60;3.30;;;13.60;95.10;;;;;;5012944;28;20258;-67
2020/12/17 11:10:33;;;;;;;4.30;4.00;;;13.60;95.30;;;;;;5012759;28;20202;-67
2020/12/17 11:12:59;;;;;;;4.90;4.50;;;13.60;95.50;;;;;;5012137;28;20182;-67
2020/12/17 11:15:24;;;;;;;4.70;4.40;;;13.60;95.70;;;;;;5012843;28;20234;-67
2020/12/17 11:17:50;;;;;;;5.80;5.10;;;13.60;95.80;;;;;;5012241;28;20171;-67
2020/12/17 11:20:18;;;;;;;3.93;3.73;;;13.50;95.90;;;;;;5012770;28;20184;-67
2020/12/17 11:22:44;;;;;;;3.80;3.50;;;13.40;95.70;;;;;;5010576;28;20450;-67
2020/12/17 11:25:11;;;;;;;4.70;4.23;;;13.40;96.20;;;;;;5012688;28;20453;-67
2020/12/17 11:27:37;;;;;;;4.43;4.13;;;13.40;96.40;;;;;;5012055;28;20414;-68
2020/12/17 11:30:06;;;;;;;4.13;3.83;;;13.50;96.10;;;;;;5012345;28;20864;-67
2020/12/17 11:32:32;;;;;;;5.53;4.90;;;13.60;96.10;;;;;;5011145;28;20468;-67
2020/12/17 11:34:57;;;;;;;4.70;4.10;;;13.80;96.10;;;;;;5011804;28;20433;-67
2020/12/17 11:37:23;;;;;;;4.27;3.97;;;14.00;95.00;;;;;;5012887;28;20243;-67
2020/12/17 11:39:49;;;;;;;4.30;4.00;;;14.10;95.00;;;;;;5016056;28;20227;-68
2020/12/17 11:42:15;;;;;;;5.23;4.50;;;14.30;94.70;;;;;;5016611;28;20180;-67
2020/12/17 11:44:40;;;;;;;4.80;4.60;;;14.40;94.00;;;;;;5015768;28;20181;-67
2020/12/17 11:47:06;;;;;;;4.30;4.10;;;14.40;94.00;;;;;;5016343;28;20450;-67
2020/12/17 11:49:32;;;;;;;4.77;4.37;;;14.40;94.10;;;;;;5016252;28;20220;-67
2020/12/17 11:51:58;;;;;;;4.93;4.57;;;14.30;93.50;;;;;;5015832;28;20239;-67
2020/12/17 11:54:23;;;;;;;5.20;4.80;;;14.20;93.90;;;;;;5016336;28;20265;-67
2020/12/17 11:56:49;;;;;;;4.77;4.30;;;14.20;93.90;;;;;;5014798;28;20173;-67
2020/12/17 11:59:16;;;;;;;4.57;4.20;;;14.10;94.30;;;;;;5013307;28;20184;-67
2020/12/17 12:01:42;;;;;;;5.70;4.70;;;14.00;94.20;;;;;;5014095;28;20416;-68
2020/12/17 12:04:10;;;;;;;4.60;4.20;;;14.00;94.50;;;;;;5015850;28;20424;-67
2020/12/17 12:06:35;;;;;;;4.70;4.40;;;14.00;94.30;;;;;;5015665;28;20276;-67
2020/12/17 12:09:01;;;;;;;4.73;4.53;;;13.90;94.60;;;;;;5015350;28;20535;-68
2020/12/17 12:11:27;;;;;;;5.00;4.77;;;13.90;94.70;;;;;;5014175;28;20181;-68
2020/12/17 12:13:53;;;;;;;5.43;4.83;;;14.00;94.90;;;;;;5015001;28;20184;-68
2020/12/17 12:16:20;;;;;;;5.97;4.20;;;14.00;94.70;;;;;;5016075;28;20609;-68
2020/12/17 12:18:48;;;;;;;5.23;4.83;;;13.90;94.30;;;;;;5014844;28;20819;-68
2020/12/17 12:21:14;;;;;;;4.37;4.17;;;13.90;94.30;;;;;;5015232;28;20430;-68
2020/12/17 12:23:44;;;;;;;4.20;4.00;;;13.80;94.50;;;;;;5015133;28;20438;-68
2020/12/17 12:26:11;;;;;;;4.50;4.20;;;13.80;94.10;;;;;;5005633;28;20420;-68
2020/12/17 12:28:40;;;;;;;5.40;5.00;;;13.80;93.10;;;;;;5005579;28;20469;-68
2020/12/17 12:31:06;;;;;;;4.50;4.10;;;13.90;93.20;;;;;;5005114;28;20460;-70
2020/12/17 12:33:33;;;;;;;4.33;3.93;;;14.00;93.10;;;;;;5008162;28;20458;-68
2020/12/17 12:35:59;;;;;;;5.10;3.83;;;14.20;92.60;;;;;;5009447;28;20534;-68
2020/12/17 12:38:24;;;;;;;6.27;4.47;;;14.30;92.80;;;;;;5003860;28;20447;-68
2020/12/17 12:40:50;;;;;;;4.70;4.30;;;14.30;93.10;;;;;;5012916;28;20231;-67
2020/12/17 12:43:16;;;;;;;4.50;4.20;;;14.30;92.70;;;;;;5014997;28;20270;-67
2020/12/17 12:45:43;;;;;;;4.50;4.10;;;14.30;92.20;;;;;;5014303;28;20193;-68
2020/12/17 12:48:09;;;;;;;4.00;3.80;;;14.20;92.20;;;;;;5005754;28;20192;-67
2020/12/17 12:50:35;;;;;;;4.53;4.33;;;14.20;92.40;;;;;;5002685;28;20511;-68